Athens, Georgia
Current Conditions -  °F | °C
As of 9:04 AM on Monday 26 Jan 2015 (Local Time) from KAHN Reporting Station
Broken Clouds Broken Clouds  
Wind Chill: 41°   Ceiling: 2000
Heat Index: 46°   Visibility: 10mi
Dew Point: 39°   Wind: 9mph
Humidity: 76%   Direction: 280°W
Pressure: 29.73"   Gusts: 20mph
Location:  33.96°N, 83.37°W
Report Text: KAHN 261404Z 28008G17KT 10SM BKN020 08/04 A2973 RMK AO2 T00780039
Loading
Personal Weather Stations






























Interactive Weather Map New forecast layout! Learn more

10-Day Weather Forecast

Advertisements
Track Severe Weather on mobile